Station: Portable Vphb (Delwp)  

  Atmospheric Gas Attenuation - ITU Rec 676-11   ----------------- dB/100km -----------------
Date Time Temp RH % AH g/m3 Dew Point Wind Direction Speed kph Gust kph Barometer mB Rainfall Since 9am 24GHz 47GHz 76GHz 122GHz 134GHz 241GHz
08/05 10:20 11.6 96 9.98 11 9 24 1013.1 0.2 22.7 28.9 46.8 123.0 120.5 415.5
08/05 07:10 10.5 97 9.41 10.1 7 22 1013.1 1.4 21.5 28.3 44.9 118.2 114.1 392.8
08/05 06:30 10.6 96 9.37 10 7 20 1013.1 1.2 21.4 28.2 44.7 117.5 113.3 390.3
08/05 06:00 10.7 95 9.33 9.9 7 20 1013.1 1.2 21.3 28.1 44.5 116.9 112.6 387.8
08/05 05:30 10.7 95 9.33 9.9 9 30 1013.1 1.2 21.3 28.1 44.5 116.9 112.6 387.8
08/05 05:00 10.8 96 9.49 10.2 15 39 1013.1 1 21.7 28.3 45.1 118.6 114.7 395.3
08/05 04:30 10.8 96 9.49 10.2 9 26 1013.1 1 21.7 28.3 45.1 118.6 114.7 395.3
08/05 03:30 11 97 9.71 10.6 7 24 1013.1 0.8 22.1 28.6 46.0 120.9 117.6 405.2
08/05 03:00 11 97 9.71 10.6 7 26 1013.1 0.6 22.1 28.6 46.0 120.9 117.6 405.2
08/05 02:30 10.8 97 9.59 10.3 7 20 1013.1 0.6 21.9 28.5 45.6 119.8 116.2 400.2
08/05 02:00 10.8 97 9.59 10.3 9 24 1013.1 0.4 21.9 28.5 45.6 119.8 116.2 400.2
08/05 01:00 10.5 97 9.41 10.1 7 22 1013.1 0.4 21.5 28.3 44.9 118.2 114.1 392.8
08/05 00:30 10.3 96 9.2 9.7 7 22 1013.1 0.4 21.1 28.0 44.2 116.0 111.4 383.4
07/05 21:00 9.8 90 8.35 8.3 9 24 1013.1 0.2 19.2 26.7 40.8 107.1 100.2 344.1
07/05 20:30 10 87 8.18 7.9 11 35 1013.1 0.2 18.9 26.3 40.0 104.9 97.6 335.0
07/05 19:00 9.8 81 7.52 6.7 11 32 1013.1 0.2 17.5 25.3 37.4 97.9 88.9 304.5
07/05 18:30 9.9 79 7.38 6.4 0 1013.1 0.2 17.2 25.0 36.8 96.3 86.9 297.6
07/05 17:00 9.3 84 7.55 6.8 13 30 1013.1 0.2 17.5 25.5 37.7 98.9 89.8 307.9
07/05 16:30 10 81 7.61 6.9 13 35 1013.1 0.2 17.6 25.4 37.6 98.7 89.8 308.0
07/05 16:00 10.8 75 7.41 6.6 13 30 1013.1 0.2 17.2 24.8 36.5 95.5 86.3 295.6
07/05 15:00 10.8 72 7.12 5.9 17 43 1013.1 0.2 16.6 24.4 35.3 92.4 82.5 282.3
07/05 14:30 11 73 7.31 6.4 17 41 1013.1 0.2 17.0 24.6 36.0 94.2 84.7 290.3
07/05 14:00 11.1 71 7.15 6.1 15 35 1013.1 0.2 16.6 24.3 35.3 92.4 82.5 282.6
07/05 13:00 11.8 63 6.63 5 17 41 1013.1 0.2 15.5 23.3 33.0 86.2 75.2 256.9
07/05 12:30 11.3 72 7.35 6.4 17 44 1013.1 0.2 17.0 24.6 36.0 94.3 84.9 291.0
07/05 12:00 10.6 76 7.42 6.6 15 39 1013.1 0.2 17.2 24.9 36.6 95.9 86.6 296.8
07/05 11:30 10.5 78 7.57 6.8 15 41 1013.1 0.2 17.5 25.2 37.2 97.6 88.7 304.2
07/05 11:00 9.5 82 7.47 6.6 11 26 1013.1 0.2 17.4 25.3 37.3 97.8 88.5 303.4
07/05 10:30 8.2 85 7.12 5.8 11 28 1013.1 0.2 16.7 25.1 36.5 95.6 85.3 291.8
07/05 10:00 7.3 86 6.8 5.1 7 20 1013.1 0.2 16.0 24.8 35.6 93.1 81.9 280.0
07/05 09:00 5 95 6.46 4.3 4 11 1013.1 0 15.4 24.9 35.2 92.1 79.7 271.9
07/05 08:30 4 95 6.05 3.3 4 7 1013.1 6.4 14.5 24.5 33.9 88.7 75.1 255.6
07/05 08:00 2.9 95 5.62 2.2 2 4 1013.1 6.2 13.6 24.1 32.6 85.2 70.3 238.5
07/05 06:30 2.1 93 5.21 1.1 6 9 1013.1 6.2 12.8 23.6 31.3 81.6 65.4 221.3
07/05 05:30 2.2 95 5.36 1.5 4 17 1013.1 6.2 13.1 23.8 31.8 83.1 67.4 228.2
07/05 04:30 2.4 94 5.37 1.6 4 7 1013.1 6 13.1 23.8 31.8 83.0 67.3 228.1
07/05 03:30 3 92 5.48 1.8 2 6 1013.1 6 13.3 23.8 32.0 83.6 68.3 231.5
07/05 03:00 3.7 91 5.68 2.4 6 19 1013.1 6 13.7 23.9 32.5 85.0 70.4 238.9
07/05 02:30 4.1 89 5.7 2.4 11 28 1013.1 5 13.8 23.9 32.5 84.8 70.3 238.6
07/05 01:00 4 90 5.73 2.5 2 7 1013.1 4 13.8 23.9 32.6 85.2 70.8 240.4
07/05 00:30 4.7 89 5.93 3.1 11 33 1013.1 4 14.2 24.1 33.2 86.6 72.8 247.6
06/05 18:30 9 94 8.29 8.1 17 48 1013.1 3.2 19.2 26.8 41.0 107.5 100.4 344.7
06/05 18:00 9.5 94 8.56 8.6 15 37 1013.1 3 19.7 27.1 41.9 109.9 103.5 355.7
06/05 17:30 10 93 8.74 8.9 17 37 1013.1 2.4 20.1 27.3 42.3 111.2 105.3 362.2
06/05 17:00 10.6 92 8.98 9.4 22 46 1013.1 2.2 20.6 27.5 43.0 113.1 107.8 371.1
06/05 16:30 12.8 86 9.63 10.5 15 39 1013.1 1.2 21.8 27.9 44.6 117.2 113.7 392.0
06/05 15:30 16.3 74 10.27 11.6 11 30 1013.1 1 23.0 27.9 45.2 119.0 117.2 404.7
06/05 15:00 15.6 77 10.24 11.6 13 35 1013.1 1 23.0 28.0 45.5 119.7 117.9 406.9
06/05 14:30 14.1 88 10.68 12.1 9 30 1013.1 0.8 24.0 29.3 48.3 127.1 126.4 436.5
06/05 14:00 13.5 90 10.53 11.9 11 32 1013.1 0.8 23.7 29.2 48.0 126.3 125.3 432.4
06/05 13:00 15.5 83 10.97 12.6 7 28 1013.1 0 24.6 29.3 48.7 128.1 128.2 442.8
06/05 12:30 14.8 87 11.02 12.6 7 28 1013.1 0 24.7 29.6 49.3 129.8 130.1 449.3
06/05 12:00 15 82 10.51 11.9 9 28 1013.1 0 23.6 28.7 47.0 123.7 122.6 423.1
06/05 08:30 12.1 87 9.33 10 4 17 1013.1 0.2 21.2 27.6 43.7 114.8 110.6 380.9
06/05 07:00 12.6 80 8.85 9.3 6 20 1013.1 0 20.2 26.7 41.4 108.8 103.3 355.5
06/05 06:30 12.4 81 8.85 9.3 4 20 1013.1 0 20.2 26.7 41.5 109.1 103.6 356.4
06/05 06:00 12.3 81 8.8 9.1 6 19 1013.1 0 20.1 26.7 41.4 108.6 103.0 354.5
06/05 03:00 11.5 90 9.3 9.9 2 9 1013.1 0 21.2 27.8 43.9 115.4 111.0 382.4
06/05 02:30 11.3 90 9.18 9.8 4 9 1013.1 0 21.0 27.6 43.5 114.3 109.6 377.5
06/05 01:30 11.6 89 9.25 9.9 2 6 1013.1 0 21.1 27.6 43.6 114.7 110.2 379.4
05/05 23:00 12 89 9.49 10.3 0 6 1013.1 0 21.6 27.9 44.4 116.8 113.0 389.2
05/05 22:30 12.1 88 9.44 10.2 0 4 1013.1 0 21.5 27.8 44.2 116.1 112.1 386.2
05/05 21:00 12.2 88 9.5 10.3 0 4 1013.1 0 21.6 27.9 44.4 116.6 112.8 388.7
05/05 20:30 12.2 87 9.39 10.1 0 6 1013.1 0 21.4 27.7 43.9 115.4 111.3 383.3
05/05 19:30 12.3 86 9.34 10 0 2 1013.1 0 21.3 27.6 43.6 114.7 110.4 380.4
05/05 19:00 12.5 86 9.46 10.3 0 2 1013.1 0 21.5 27.7 44.0 115.7 111.8 385.2
05/05 18:30 12.7 84 9.35 10.1 0 2 1013.1 0 21.3 27.5 43.4 114.2 110.0 378.9
05/05 16:00 13.3 79 9.13 9.8 4 11 1013.1 0 20.7 26.9 42.2 110.9 106.1 365.5
05/05 15:00 13.4 78 9.07 9.6 6 15 1013.1 0 20.6 26.8 41.9 110.1 105.2 362.2
05/05 14:30 13.3 77 8.9 9.4 7 19 1013.1 0 20.3 26.5 41.3 108.4 103.0 354.7
05/05 13:00 13.7 73 8.64 8.9 6 17 1013.1 0 19.7 26.0 40.0 105.0 99.0 340.7
05/05 12:30 13.6 78 9.18 9.8 9 24 1013.1 0 20.8 26.9 42.3 111.0 106.4 366.5
05/05 12:00 13 82 9.3 10 7 19 1013.1 0 21.1 27.3 43.1 113.2 108.9 375.0
05/05 11:00 12.4 84 9.18 9.8 11 30 1013.1 0 20.9 27.3 42.9 112.7 108.1 372.2
05/05 10:30 12.5 85 9.35 10.1 7 20 1013.1 0 21.3 27.5 43.6 114.5 110.3 379.9
05/05 08:30 9.9 95 8.87 9.1 2 6 1013.1 3.2 20.4 27.5 43.0 112.8 107.3 369.0
05/05 08:00 9.4 95 8.59 8.6 2 6 1013.1 3.2 19.8 27.2 42.0 110.4 104.0 357.6
05/05 06:00 10.1 95 8.99 9.3 7 20 1013.1 3.2 20.6 27.7 43.4 113.9 108.7 374.0
04/05 23:30 11.3 91 9.28 9.9 7 17 1013.1 2.8 21.2 27.8 43.9 115.5 111.0 382.4
04/05 23:00 11.5 90 9.3 9.9 7 20 1013.1 2.8 21.2 27.8 43.9 115.4 111.0 382.4
04/05 22:30 11.5 91 9.4 10.1 7 22 1013.1 2.8 21.4 27.9 44.3 116.5 112.4 387.3
04/05 19:30 11.7 92 9.62 10.4 11 30 1013.1 2.8 21.9 28.2 45.2 118.7 115.2 397.1
04/05 18:00 11.9 90 9.53 10.3 7 26 1013.1 2.6 21.7 28.0 44.7 117.4 113.7 391.6
04/05 16:30 13 88 9.98 11.1 9 30 1013.1 1.8 22.6 28.4 45.9 120.8 118.3 408.0
04/05 14:30 15 87 11.16 12.9 6 30 1013.1 1.4 25.0 29.8 49.8 131.1 131.7 455.0
04/05 14:00 13.7 87 10.3 11.6 7 33 1013.1 1.2 23.2 28.8 46.9 123.4 121.7 420.0
04/05 13:30 14.1 90 10.92 12.5 7 32 1013.1 0.8 24.6 29.7 49.3 129.9 129.8 448.4
04/05 13:00 14.8 79 10.01 11.2 11 35 1013.1 0 22.6 27.9 45.0 118.4 116.0 400.1
04/05 12:00 14.5 79 9.83 10.9 13 39 1013.1 0 22.2 27.7 44.4 116.9 114.0 393.0
04/05 11:00 10.5 13 39 1013.1
04/05 08:30 12.1 83 8.9 9.3 13 30 1013.1 0.2 20.3 26.9 41.9 110.0 104.7 360.2
04/05 08:00 12 83 8.85 9.2 13 44 1013.1 0.2 20.2 26.8 41.7 109.6 104.1 358.2
04/05 07:30 11.9 82 8.69 8.9 11 35 1013.1 0.2 19.9 26.6 41.1 108.0 102.1 351.0
04/05 07:00 12.2 80 8.63 8.9 13 32 1013.1 0.2 19.7 26.4 40.7 106.9 100.8 346.9
04/05 06:00 12.1 79 8.47 8.6 15 44 1013.1 0.2 19.4 26.2 40.1 105.3 98.8 339.7
04/05 03:00 12.9 74 8.34 8.4 11 37 1013.1 0.2 19.1 25.7 39.2 102.8 96.1 330.2
04/05 02:00 13.5 73 8.54 8.8 15 41 1013.1 0.2 19.5 25.9 39.7 104.2 98.0 337.0
04/05 01:00 13.1 74 8.44 8.6 15 43 1013.1 0.2 19.3 25.8 39.5 103.6 97.2 334.0
03/05 21:00 14.5 68 8.46 8.7 17 56 1013.1 0 19.3 25.5 38.9 102.0 95.7 329.1
03/05 20:30 14.6 66 8.26 8.3 19 50 1013.1 0 18.8 25.1 38.1 99.8 93.0 319.6

Last Refresh: 08-May-2026 12:10:20

Bureau of Meteorology